Terminal Aerodrome Forecast
Issued by NWS Wakefield, VA

Home | Current Version | Previous Version | Text Only | Print | Product List | Glossary On
Versions: 1 2 3 4 5 6 7 8 9 10 11 12 13 14 15 16 17 18 19 20 21
000
FTUS41 KAKQ 010400 AAA
TAFSBY
TAF AMD
KSBY 010419Z 0104/0124 VRB04KT P6SM OVC045
     FM010700 02003KT 2SM BR BKN005
     FM010900 36004KT 5SM BR BKN012
     FM011400 35005KT P6SM SCT025
     FM011700 04010KT P6SM SCT030=

USA.gov is the U.S. government's official web portal to all federal, state and local government web resources and services.